createdAt,value
2023-04-08T00:15:18.000Z,18.50
2023-04-08T00:25:19.000Z,18.40
2023-04-08T00:35:19.000Z,19.20
2023-04-08T00:45:20.000Z,21.50
2023-04-08T00:55:21.000Z,20.40
2023-04-08T01:05:21.000Z,19.50
2023-04-08T01:15:22.000Z,18.40
2023-04-08T01:25:23.000Z,22.10
2023-04-08T01:45:24.000Z,20.60
2023-04-08T01:55:25.000Z,21.50
2023-04-08T02:05:25.000Z,20.70
2023-04-08T02:15:26.000Z,22.10
2023-04-08T02:25:27.000Z,20.90
2023-04-08T02:35:27.000Z,22.00
2023-04-08T02:45:28.000Z,24.10
2023-04-08T02:55:29.000Z,25.30
2023-04-08T03:15:30.000Z,26.00
2023-04-08T03:25:31.000Z,25.10
2023-04-08T03:35:31.000Z,20.70
2023-04-08T03:45:32.000Z,22.30
2023-04-08T03:55:33.000Z,21.50
2023-04-08T04:05:34.000Z,19.00
2023-04-08T04:15:34.000Z,19.30
2023-04-08T04:25:35.000Z,19.90
2023-04-08T04:45:36.000Z,20.40
2023-04-08T04:55:37.000Z,16.60
2023-04-08T05:05:38.000Z,17.40
2023-04-08T05:15:38.000Z,16.50
2023-04-08T05:25:39.000Z,18.90
2023-04-08T05:35:40.000Z,20.40
2023-04-08T05:45:41.000Z,19.70
2023-04-08T05:55:41.000Z,21.50
2023-04-08T06:15:43.000Z,23.50
2023-04-08T06:25:43.000Z,24.00
2023-04-08T06:35:44.000Z,26.10
2023-04-08T06:45:45.000Z,28.00
2023-04-08T06:55:46.000Z,30.80
2023-04-08T07:05:46.000Z,31.10
2023-04-08T07:15:47.000Z,32.20
2023-04-08T07:25:48.000Z,42.40
2023-04-08T07:45:49.000Z,40.40
2023-04-08T07:55:49.000Z,44.80
2023-04-08T08:05:50.000Z,43.80
2023-04-08T08:15:51.000Z,43.40
2023-04-08T08:25:51.000Z,42.40
2023-04-08T08:35:52.000Z,42.60
2023-04-08T08:45:52.000Z,38.30
2023-04-08T08:55:52.000Z,39.50
2023-04-08T09:15:53.000Z,43.70
2023-04-08T09:25:54.000Z,44.30
2023-04-08T09:35:54.000Z,37.60
2023-04-08T09:45:55.000Z,39.60
2023-04-08T09:55:55.000Z,37.90
2023-04-08T10:05:55.000Z,37.90
2023-04-08T10:15:56.000Z,43.00
2023-04-08T10:25:56.000Z,40.20
2023-04-08T10:45:57.000Z,39.10
2023-04-08T10:55:58.000Z,41.40
2023-04-08T11:05:58.000Z,37.30
2023-04-08T11:05:58.000Z,37.30
2023-04-08T11:15:58.000Z,38.20
2023-04-08T11:25:59.000Z,34.50
2023-04-08T11:35:59.000Z,33.60
2023-04-08T11:45:59.000Z,31.30
2023-04-08T11:56:00.000Z,27.50
2023-04-08T12:16:00.000Z,28.40
2023-04-08T12:26:00.000Z,29.10
2023-04-08T12:36:00.000Z,29.30
2023-04-08T12:46:00.000Z,27.70
2023-04-08T12:56:00.000Z,27.50
2023-04-08T13:06:00.000Z,31.00
2023-04-08T13:16:01.000Z,30.80
2023-04-08T13:26:01.000Z,25.90
2023-04-08T13:46:01.000Z,25.80
2023-04-08T13:56:01.000Z,22.90
2023-04-08T14:06:01.000Z,24.70
2023-04-08T14:16:01.000Z,23.30
2023-04-08T14:26:01.000Z,22.60
2023-04-08T14:36:01.000Z,25.80
2023-04-08T14:46:01.000Z,21.50
2023-04-08T14:56:02.000Z,23.40
2023-04-08T15:16:02.000Z,21.60
2023-04-08T15:26:02.000Z,16.30
2023-04-08T15:36:02.000Z,21.10
2023-04-08T15:46:02.000Z,20.80
2023-04-08T15:56:02.000Z,19.60
2023-04-08T16:06:02.000Z,21.70
2023-04-08T16:16:02.000Z,33.30
2023-04-08T16:26:02.000Z,26.20
2023-04-08T16:46:02.000Z,26.10
2023-04-08T16:56:02.000Z,25.10
2023-04-08T17:06:02.000Z,24.10
2023-04-08T17:16:02.000Z,25.70
2023-04-08T17:26:02.000Z,30.50
2023-04-08T17:36:03.000Z,28.80
2023-04-08T17:46:03.000Z,30.00
2023-04-08T17:56:03.000Z,27.10
2023-04-08T18:16:04.000Z,40.30
2023-04-08T18:26:04.000Z,33.10
2023-04-08T18:36:04.000Z,34.70
2023-04-08T18:46:05.000Z,34.00
2023-04-08T18:56:05.000Z,37.10
2023-04-08T19:06:05.000Z,44.40
2023-04-08T19:16:06.000Z,30.00
2023-04-08T19:26:06.000Z,34.00
2023-04-08T19:46:07.000Z,30.60
2023-04-08T19:56:07.000Z,29.40
2023-04-08T20:06:08.000Z,29.30
2023-04-08T20:16:08.000Z,29.40
2023-04-08T20:26:08.000Z,29.00
2023-04-08T20:36:09.000Z,30.80
2023-04-08T20:46:09.000Z,27.90
2023-04-08T20:56:10.000Z,32.00
2023-04-08T21:16:11.000Z,33.80
2023-04-08T21:26:11.000Z,32.70
2023-04-08T21:36:12.000Z,34.00
2023-04-08T21:46:12.000Z,34.50
2023-04-08T21:56:13.000Z,32.10
2023-04-08T21:56:13.000Z,32.10
2023-04-08T22:06:13.000Z,35.40
2023-04-08T22:16:14.000Z,35.40
2023-04-08T22:26:14.000Z,35.00
2023-04-08T22:46:16.000Z,37.60
2023-04-08T22:56:16.000Z,38.40
2023-04-08T23:06:17.000Z,39.10
2023-04-08T23:16:18.000Z,45.40
2023-04-08T23:26:18.000Z,43.50
2023-04-08T23:36:19.000Z,45.30
2023-04-08T23:46:20.000Z,37.00
2023-04-08T23:56:21.000Z,39.70
